Creek Data

    Home     View Charts     View Raw Data     Messages

ID Distance Battery Voltage Battery Current Internal Temp Internal Humidity External Temp Solar Input rssi snr Time Stamp Record
64793 14.9 3.68 -5 48 54 49 0.1 -77 8 01/29/2026 06:15 PM 47555
64792 14.9 3.68 -5 50 55 51 0 -77 8 01/29/2026 06:00 PM 47554
64791 14.9 3.82 -5 51 55 51 0.1 -77 8 01/29/2026 05:45 PM 47553
64790 14.9 3.69 -6 53 56 52 2.8 -77 8 01/29/2026 05:30 PM 47552
64789 14.9 3.66 0 56 56 53 4.5 -77 9 01/29/2026 05:15 PM 47551
64788 14.9 3.92 6 59 55 55 4.5 -77 8 01/29/2026 05:00 PM 47550
64787 15.0 3.96 7 63 53 57 4.5 -77 8 01/29/2026 04:45 PM 47549
64786 15.0 3.82 0 67 51 59 5.1 -77 8 01/29/2026 04:30 PM 47548
64785 15.0 3.80 0 69 49 60 5.1 -77 8 01/29/2026 04:15 PM 47547
64784 15.0 3.86 0 71 47 60 5.1 -75 8 01/29/2026 04:00 PM 47546
64783 15.0 3.80 0 72 46 60 5.1 -76 8 01/29/2026 03:45 PM 47545
64782 15.0 3.85 0 69 48 60 5.1 -76 8 01/29/2026 03:30 PM 47544
64781 15.1 3.80 0 66 50 59 5.1 -76 7 01/29/2026 03:15 PM 47543
64780 15.1 3.80 0 68 48 58 5.1 -75 8 01/29/2026 03:00 PM 47542
64779 15.1 3.80 0 72 44 58 5.1 -74 8 01/29/2026 02:45 PM 47541
64778 15.1 3.80 0 72 42 58 5.1 -73 7 01/29/2026 02:30 PM 47540
64777 15.1 4.07 0 70 42 57 5.1 -74 8 01/29/2026 02:15 PM 47539
64776 15.1 3.80 0 67 42 56 5.1 -74 8 01/29/2026 02:00 PM 47538
64775 15.1 3.80 0 64 43 54 5.1 -76 8 01/29/2026 01:45 PM 47537
64774 15.0 3.80 0 57 48 51 5.1 -75 8 01/29/2026 01:30 PM 47536
64773 15.0 3.82 0 55 48 50 5.1 -73 8 01/29/2026 01:15 PM 47535
64772 15.0 3.80 0 54 49 49 5.1 -76 8 01/29/2026 01:00 PM 47534
64771 14.9 3.81 0 54 49 49 5.1 -75 7 01/29/2026 12:45 PM 47533
64770 15.0 3.80 0 54 48 48 5.1 -76 8 01/29/2026 12:30 PM 47532
64769 15.0 3.81 0 54 48 49 5.1 -76 7 01/29/2026 12:15 PM 47531